Time;durP1;ratioP1;P1;durP2;ratioP2;P2;SDS_P1;SDS_P2;PMS_P1;PMS_P2;Temp;Humidity;BMP_temperature;BMP_pressure;BME280_temperature;BME280_humidity;BME280_pressure;Samples;Min_cycle;Max_cycle;Signal;HPM_P1;HPM_P2
2022/09/03 00:00:17;;;;;;;1.48;0.73;;;;;;;19.61;36.55;99643.03;5072480;28;20061;-60
2022/09/03 00:03:02;;;;;;;3.55;0.73;;;;;;;19.56;36.16;99639.13;5071614;28;20049;-60
2022/09/03 00:05:55;;;;;;;0.60;0.50;;;;;;;19.53;36.61;99641.09;5071035;28;20464;-60
2022/09/03 00:08:38;;;;;;;0.40;0.40;;;;;;;19.54;36.39;99639.25;5070583;28;20060;-60
2022/09/03 00:11:12;;;;;;;3.90;0.60;;;;;;;19.51;36.66;99631.56;5050965;28;20049;-62
2022/09/03 00:13:45;;;;;;;0.80;0.70;;;;;;;19.51;36.35;99642.25;5050743;28;20053;-60
2022/09/03 00:16:18;;;;;;;2.95;0.55;;;;;;;19.48;36.56;99634.53;5052097;28;20451;-60
2022/09/03 00:18:54;;;;;;;1.25;0.70;;;;;;;19.46;36.61;99634.66;5068067;28;20055;-60
2022/09/03 00:21:50;;;;;;;1.00;0.73;;;;;;;19.43;36.16;99642.16;5070847;28;20056;-61
2022/09/03 00:24:20;;;;;;;3.75;0.70;;;;;;;19.46;36.46;99636.50;5069211;28;20052;-61
2022/09/03 00:26:53;;;;;;;0.75;0.52;;;;;;;19.44;36.34;99635.81;5071432;28;20044;-61
2022/09/03 00:29:24;;;;;;;2.00;0.70;;;;;;;19.41;36.56;99631.63;5070497;28;20059;-60
2022/09/03 00:32:00;;;;;;;0.50;0.50;;;;;;;19.39;36.98;99633.56;5071762;28;20056;-60
2022/09/03 00:34:38;;;;;;;1.38;0.80;;;;;;;19.37;36.54;99632.91;5070485;28;20048;-60
2022/09/03 00:37:06;;;;;;;1.20;0.70;;;;;;;19.37;36.98;99636.38;5070059;28;20098;-61
2022/09/03 00:39:40;;;;;;;2.33;0.70;;;;;;;19.36;36.62;99631.22;5070268;28;20059;-60
2022/09/03 00:42:07;;;;;;;1.40;0.65;;;;;;;19.35;36.87;99630.38;5071540;28;20513;-63
2022/09/03 00:45:06;;;;;;;1.38;0.60;;;;;;;19.29;36.86;99633.66;5071459;28;20087;-60
2022/09/03 00:47:54;;;;;;;2.35;0.63;;;;;;;19.29;36.79;99630.13;5070883;28;20481;-61
2022/09/03 00:50:51;;;;;;;1.70;0.60;;;;;;;19.25;36.62;99634.94;5069962;28;20099;-59
2022/09/03 00:53:32;;;;;;;0.88;0.55;;;;;;;19.23;37.15;99621.72;5071342;28;20052;-60
2022/09/03 00:56:01;;;;;;;1.85;0.50;;;;;;;19.23;36.86;99628.88;5070907;28;20052;-62
2022/09/03 00:59:08;;;;;;;1.35;0.52;;;;;;;19.16;36.90;99627.78;5070776;28;20408;-59
2022/09/03 01:01:54;;;;;;;3.45;0.82;;;;;;;19.17;36.91;99635.63;5071083;28;20060;-60
2022/09/03 01:04:41;;;;;;;2.75;0.40;;;;;;;19.10;37.05;99626.56;5069811;28;20060;-60
2022/09/03 01:07:32;;;;;;;0.60;0.50;;;;;;;19.10;37.15;99626.56;5055503;28;20404;-60
2022/09/03 01:10:05;;;;;;;2.83;0.32;;;;;;;19.05;37.18;99624.31;5070943;28;20045;-59
2022/09/03 01:12:57;;;;;;;0.85;0.70;;;;;;;18.99;37.18;99622.22;5070840;28;20049;-61
2022/09/03 01:15:34;;;;;;;1.90;0.60;;;;;;;18.98;37.17;99631.19;5069833;28;20059;-61
2022/09/03 01:18:36;;;;;;;0.63;0.45;;;;;;;18.91;37.80;99622.09;5069269;28;20127;-61
2022/09/03 01:21:37;;;;;;;1.60;0.70;;;;;;;18.82;37.70;99619.31;5050786;28;20064;-60
2022/09/03 01:24:45;;;;;;;2.47;0.55;;;;;;;18.70;37.49;99629.31;5050717;28;20505;-61
2022/09/03 01:27:32;;;;;;;0.40;0.40;;;;;;;18.68;37.76;99628.59;5008572;28;20236;-63
2022/09/03 01:30:06;;;;;;;1.90;0.70;;;;;;;18.56;38.35;99625.25;5035939;28;20084;-61
2022/09/03 01:32:42;;;;;;;2.33;0.68;;;;;;;18.52;37.80;99623.00;5049496;28;20055;-60
2022/09/03 01:35:30;;;;;;;0.85;0.50;;;;;;;18.41;38.26;99632.84;5050718;28;20053;-61
2022/09/03 01:38:22;;;;;;;0.30;0.30;;;;;;;18.36;38.36;99630.59;5061364;28;20054;-60
2022/09/03 01:40:54;;;;;;;1.25;0.60;;;;;;;18.34;38.52;99637.06;5070775;28;20075;-59
2022/09/03 01:43:39;;;;;;;3.92;0.70;;;;;;;18.33;38.24;99636.22;5070547;28;20048;-59
2022/09/03 01:46:22;;;;;;;1.80;0.52;;;;;;;18.27;38.70;99631.44;5070434;28;20412;-61
2022/09/03 01:49:06;;;;;;;0.73;0.50;;;;;;;18.24;38.75;99631.72;5068876;28;20067;-59
2022/09/03 01:51:33;;;;;;;1.35;0.52;;;;;;;18.23;38.75;99633.56;5070493;28;20075;-60
2022/09/03 01:54:15;;;;;;;1.10;0.65;;;;;;;18.16;38.82;99635.09;5070411;28;20073;-62
2022/09/03 01:57:08;;;;;;;2.42;0.52;;;;;;;18.14;38.97;99626.41;5070363;28;20102;-60
2022/09/03 02:00:05;;;;;;;1.23;0.73;;;;;;;18.09;38.98;99629.50;5069924;28;20048;-61
2022/09/03 02:02:34;;;;;;;1.15;0.68;;;;;;;18.07;39.06;99626.09;5069130;28;20056;-60
2022/09/03 02:05:08;;;;;;;2.00;0.70;;;;;;;18.03;39.13;99639.84;5070654;28;20056;-61
2022/09/03 02:07:42;;;;;;;0.90;0.70;;;;;;;17.96;39.20;99626.22;5070032;28;20041;-60
2022/09/03 02:10:15;;;;;;;0.77;0.63;;;;;;;17.92;39.55;99632.81;5068825;28;20501;-60
2022/09/03 02:12:47;;;;;;;0.98;0.60;;;;;;;17.88;39.33;99642.06;5069126;28;20389;-60
2022/09/03 02:15:17;;;;;;;0.50;0.50;;;;;;;17.83;39.33;99639.81;5068961;28;20052;-60
2022/09/03 02:17:48;;;;;;;2.22;0.60;;;;;;;17.80;39.34;99637.44;5068901;28;20049;-61
2022/09/03 02:20:19;;;;;;;1.05;0.68;;;;;;;17.76;39.66;99633.34;5070060;28;20122;-62
2022/09/03 02:22:47;;;;;;;2.45;0.73;;;;;;;17.74;39.72;99630.81;5070410;28;20405;-60
2022/09/03 02:25:17;;;;;;;2.33;0.63;;;;;;;17.73;39.95;99636.28;5070867;28;20058;-59
2022/09/03 02:27:47;;;;;;;1.45;0.60;;;;;;;17.69;39.77;99631.22;5073654;28;20040;-60
2022/09/03 02:30:14;;;;;;;0.95;0.55;;;;;;;17.68;40.01;99636.72;5073503;28;20447;-60
2022/09/03 02:32:40;;;;;;;1.00;0.75;;;;;;;17.63;40.61;99637.09;5073971;28;20065;-60
2022/09/03 02:35:07;;;;;;;1.45;0.82;;;;;;;17.61;40.16;99638.22;5074102;28;20048;-61
2022/09/03 02:37:34;;;;;;;2.28;0.50;;;;;;;17.56;40.68;99639.47;5073677;28;20048;-60
2022/09/03 02:40:05;;;;;;;1.20;0.60;;;;;;;17.52;41.03;99640.72;5073621;28;20084;-59
2022/09/03 02:42:32;;;;;;;3.03;0.50;;;;;;;17.48;40.86;99626.00;5073684;28;20045;-60
2022/09/03 02:45:27;;;;;;;2.50;0.60;;;;;;;17.40;41.04;99624.03;5074056;28;20408;-59
2022/09/03 02:47:56;;;;;;;3.53;0.45;;;;;;;17.39;40.23;99626.81;5073404;28;20052;-61
2022/09/03 02:50:24;;;;;;;0.95;0.60;;;;;;;17.36;40.98;99625.28;5071792;28;20055;-61
2022/09/03 02:52:51;;;;;;;4.32;0.50;;;;;;;17.33;40.68;99625.53;5072173;28;20496;-60
2022/09/03 02:55:18;;;;;;;1.00;0.55;;;;;;;17.32;40.60;99630.00;5072569;28;20064;-62
2022/09/03 02:57:45;;;;;;;0.63;0.60;;;;;;;17.30;40.76;99626.66;5072197;28;20048;-60
2022/09/03 03:00:13;;;;;;;4.10;0.60;;;;;;;17.29;41.01;99626.78;5073287;28;20056;-61
2022/09/03 03:02:41;;;;;;;5.40;1.05;;;;;;;17.27;41.36;99624.25;5072252;28;20504;-62
2022/09/03 03:05:17;;;;;;;3.35;0.70;;;;;;;17.23;41.70;99633.47;5073382;28;20056;-60
2022/09/03 03:07:43;;;;;;;1.35;0.63;;;;;;;17.23;41.32;99630.00;5071880;28;20055;-60
2022/09/03 03:10:11;;;;;;;1.23;0.50;;;;;;;17.19;41.25;99624.06;5072951;28;20056;-61
2022/09/03 03:12:38;;;;;;;0.52;0.45;;;;;;;17.16;41.27;99621.72;5073262;28;20052;-61
2022/09/03 03:15:05;;;;;;;0.98;0.85;;;;;;;17.11;41.36;99618.56;5073258;28;20143;-60
2022/09/03 03:17:32;;;;;;;4.10;0.70;;;;;;;17.06;41.40;99611.88;5072999;28;20048;-60
2022/09/03 03:19:59;;;;;;;0.82;0.60;;;;;;;17.02;41.54;99610.41;5072687;28;20040;-60
2022/09/03 03:22:25;;;;;;;0.73;0.55;;;;;;;17.00;41.63;99611.50;5073383;28;20070;-61
2022/09/03 03:24:54;;;;;;;2.58;0.50;;;;;;;16.97;42.07;99615.28;5073245;28;20087;-59
2022/09/03 03:27:21;;;;;;;0.70;0.60;;;;;;;16.95;41.89;99611.91;5071504;28;20056;-61
2022/09/03 03:29:49;;;;;;;1.27;0.73;;;;;;;16.92;41.59;99615.69;5072668;28;20061;-59
2022/09/03 03:32:15;;;;;;;1.00;0.70;;;;;;;16.90;41.68;99612.31;5072894;28;20060;-60
2022/09/03 03:34:42;;;;;;;3.25;0.75;;;;;;;16.89;41.94;99610.63;5072770;28;20048;-60
2022/09/03 03:37:09;;;;;;;1.38;0.80;;;;;;;16.88;42.22;99613.41;5070037;28;20075;-62
2022/09/03 03:39:36;;;;;;;1.17;0.50;;;;;;;16.87;42.17;99609.06;5072716;28;20072;-62
2022/09/03 03:42:03;;;;;;;1.98;0.65;;;;;;;16.84;42.29;99612.00;5072662;28;20178;-62
2022/09/03 03:44:29;;;;;;;1.50;0.90;;;;;;;16.80;42.11;99609.63;5072725;28;20067;-60
2022/09/03 03:46:56;;;;;;;0.65;0.40;;;;;;;16.79;42.13;99604.44;5072223;28;20050;-60
2022/09/03 03:49:22;;;;;;;1.10;0.65;;;;;;;16.74;41.90;99607.47;5072147;28;20056;-60
2022/09/03 03:51:49;;;;;;;1.27;0.65;;;;;;;16.73;42.02;99612.91;5072816;28;20058;-60
2022/09/03 03:54:16;;;;;;;0.70;0.60;;;;;;;16.70;42.12;99611.34;5072650;28;20045;-61
2022/09/03 03:56:43;;;;;;;1.17;0.70;;;;;;;16.70;42.14;99610.53;5072236;28;20052;-62
2022/09/03 03:59:16;;;;;;;1.40;0.68;;;;;;;16.68;42.13;99615.97;5071472;28;20043;-61
2022/09/03 04:01:43;;;;;;;3.05;0.57;;;;;;;16.67;42.26;99608.94;5052245;28;20053;-61
2022/09/03 04:04:09;;;;;;;2.58;0.50;;;;;;;16.65;42.42;99610.91;5052415;28;20049;-61
2022/09/03 04:06:36;;;;;;;2.70;0.65;;;;;;;16.64;42.42;99604.75;5052336;28;20064;-60
2022/09/03 04:09:02;;;;;;;2.78;0.65;;;;;;;16.61;42.55;99607.69;5071666;28;20492;-60
2022/09/03 04:11:29;;;;;;;0.73;0.60;;;;;;;16.61;42.38;99605.03;5072309;28;20048;-62
2022/09/03 04:13:56;;;;;;;0.68;0.60;;;;;;;16.58;42.48;99607.09;5072068;28;20063;-62
2022/09/03 04:16:26;;;;;;;0.85;0.50;;;;;;;16.53;42.77;99603.00;5072008;28;20055;-61
2022/09/03 04:18:54;;;;;;;0.70;0.70;;;;;;;16.52;42.91;99603.97;5070324;28;20084;-59
2022/09/03 04:21:24;;;;;;;1.38;0.60;;;;;;;16.50;42.86;99605.09;5072096;28;20658;-61
2022/09/03 04:23:54;;;;;;;1.48;0.80;;;;;;;16.49;42.85;99611.38;5072055;28;20099;-62
2022/09/03 04:26:30;;;;;;;1.15;0.70;;;;;;;16.44;43.06;99603.78;5071753;28;20095;-62
2022/09/03 04:29:04;;;;;;;2.92;0.80;;;;;;;16.44;43.14;99603.78;5069951;28;20055;-60
2022/09/03 04:31:32;;;;;;;2.30;0.68;;;;;;;16.46;43.03;99598.34;5071946;28;20075;-60
2022/09/03 04:33:59;;;;;;;0.52;0.50;;;;;;;16.45;42.94;99594.84;5070419;28;20053;-60
2022/09/03 04:36:28;;;;;;;0.80;0.70;;;;;;;16.44;42.90;99595.81;5071666;28;20049;-61
2022/09/03 04:38:58;;;;;;;0.57;0.50;;;;;;;16.44;43.15;99602.97;5069961;28;20127;-60
2022/09/03 04:41:26;;;;;;;0.73;0.65;;;;;;;16.44;43.20;99598.47;5070259;28;20052;-61
2022/09/03 04:43:55;;;;;;;0.75;0.50;;;;;;;16.43;43.23;99602.09;5070239;28;20045;-59
2022/09/03 04:46:25;;;;;;;2.35;0.60;;;;;;;16.42;43.36;99605.75;5070161;28;20071;-61
2022/09/03 04:48:53;;;;;;;1.80;0.70;;;;;;;16.43;43.16;99604.75;5069399;28;20048;-60
2022/09/03 04:51:28;;;;;;;0.73;0.73;;;;;;;16.40;43.45;99605.00;5070143;28;20052;-62
2022/09/03 04:53:59;;;;;;;0.57;0.57;;;;;;;16.42;43.41;99605.75;5070351;28;20390;-60
2022/09/03 04:56:29;;;;;;;4.20;0.57;;;;;;;16.41;43.34;99604.88;5070100;28;20084;-62
2022/09/03 04:59:00;;;;;;;0.52;0.50;;;;;;;16.41;43.48;99604.06;5070642;28;20053;-61
2022/09/03 05:01:29;;;;;;;0.82;0.70;;;;;;;16.41;43.17;99607.53;5069963;28;20049;-60
2022/09/03 05:03:57;;;;;;;3.80;1.25;;;;;;;16.41;43.24;99606.72;5069860;28;20064;-61
2022/09/03 05:06:25;;;;;;;0.60;0.60;;;;;;;16.41;43.36;99609.38;5069519;28;20087;-60
2022/09/03 05:08:53;;;;;;;0.88;0.80;;;;;;;16.41;43.51;99610.19;5068173;28;20136;-60
2022/09/03 05:11:21;;;;;;;0.50;0.50;;;;;;;16.41;43.44;99606.72;5071071;28;20052;-59
2022/09/03 05:13:53;;;;;;;1.17;0.70;;;;;;;16.44;43.49;99609.09;5069789;28;20056;-59
2022/09/03 05:16:20;;;;;;;1.15;0.60;;;;;;;16.44;43.54;99609.09;5070923;28;20059;-59
2022/09/03 05:18:51;;;;;;;0.63;0.63;;;;;;;16.44;43.89;99609.09;5067848;28;20140;-61
2022/09/03 05:21:19;;;;;;;1.20;0.60;;;;;;;16.47;43.58;99597.38;5066277;28;20052;-58
2022/09/03 05:23:49;;;;;;;2.45;0.85;;;;;;;16.48;43.63;99604.38;5069512;28;20048;-60
2022/09/03 05:26:19;;;;;;;1.30;0.90;;;;;;;16.47;43.91;99600.03;5069300;28;20139;-60
2022/09/03 05:28:47;;;;;;;1.13;0.63;;;;;;;16.50;43.70;99594.47;5068994;28;20097;-60
2022/09/03 05:31:16;;;;;;;0.82;0.70;;;;;;;16.51;43.89;99597.00;5070643;28;20049;-61
2022/09/03 05:33:45;;;;;;;1.77;0.70;;;;;;;16.52;43.89;99598.66;5070924;28;20076;-60
2022/09/03 05:36:15;;;;;;;0.73;0.60;;;;;;;16.53;43.96;99595.03;5070781;28;20079;-60
2022/09/03 05:38:42;;;;;;;0.90;0.57;;;;;;;16.55;43.88;99592.25;5069145;28;20057;-62
2022/09/03 05:41:11;;;;;;;0.75;0.60;;;;;;;16.56;44.04;99598.41;5069204;28;20048;-60
2022/09/03 05:43:38;;;;;;;1.25;0.63;;;;;;;16.59;43.88;99598.16;5069322;28;20045;-60
2022/09/03 05:46:08;;;;;;;1.27;0.80;;;;;;;16.58;44.06;99591.13;5070355;28;20048;-61
2022/09/03 05:48:37;;;;;;;3.70;0.93;;;;;;;16.59;44.14;99596.31;5068785;28;20080;-60
2022/09/03 05:51:09;;;;;;;0.95;0.60;;;;;;;16.60;44.49;99592.69;5069225;28;20496;-60
2022/09/03 05:53:38;;;;;;;0.50;0.50;;;;;;;16.63;44.12;99599.59;5070686;28;20059;-60
2022/09/03 05:56:09;;;;;;;3.28;0.77;;;;;;;16.65;44.16;99598.47;5069066;28;20048;-59
2022/09/03 05:58:42;;;;;;;1.40;0.70;;;;;;;16.68;44.16;99598.19;5070016;28;20090;-60
2022/09/03 06:01:23;;;;;;;1.38;0.60;;;;;;;16.69;44.48;99599.06;5069827;28;20818;-60
2022/09/03 06:04:00;;;;;;;0.50;0.50;;;;;;;16.72;44.40;99596.13;5070542;28;20064;-61
2022/09/03 06:06:30;;;;;;;4.55;0.80;;;;;;;16.79;44.21;99596.44;5070424;28;20056;-60
2022/09/03 06:08:59;;;;;;;3.15;0.80;;;;;;;16.83;44.14;99597.88;5068648;28;20056;-60
2022/09/03 06:11:28;;;;;;;1.38;0.60;;;;;;;16.88;44.22;99600.97;5069335;28;20052;-62
2022/09/03 06:14:04;;;;;;;4.93;0.80;;;;;;;16.90;44.56;99601.66;5069100;28;20096;-59
2022/09/03 06:16:32;;;;;;;1.20;0.77;;;;;;;16.96;44.23;99608.28;5070409;28;20087;-60
2022/09/03 06:18:59;;;;;;;0.68;0.60;;;;;;;17.01;44.09;99611.38;5069650;28;20048;-60
2022/09/03 06:21:26;;;;;;;0.75;0.60;;;;;;;17.05;44.16;99610.16;5069521;28;20136;-60
2022/09/03 06:23:55;;;;;;;3.05;0.80;;;;;;;17.08;44.09;99606.41;5070239;28;20055;-60
2022/09/03 06:26:29;;;;;;;2.60;0.80;;;;;;;17.15;44.17;99604.03;5068864;28;20045;-61
2022/09/03 06:28:56;;;;;;;2.00;0.70;;;;;;;17.21;44.01;99611.50;5069905;28;20060;-60
2022/09/03 06:31:24;;;;;;;1.20;0.77;;;;;;;17.25;44.16;99612.06;5070064;28;20068;-60
2022/09/03 06:33:53;;;;;;;4.53;1.00;;;;;;;17.30;44.09;99607.16;5068622;28;20057;-60
2022/09/03 06:36:22;;;;;;;1.30;0.75;;;;;;;17.34;44.11;99607.75;5068569;28;20114;-60
2022/09/03 06:38:53;;;;;;;1.45;0.80;;;;;;;17.39;44.10;99613.53;5068305;28;20072;-62
2022/09/03 06:41:31;;;;;;;1.90;0.90;;;;;;;17.45;44.36;99612.97;5069286;28;20087;-60
2022/09/03 06:44:02;;;;;;;1.15;0.60;;;;;;;17.53;44.21;99612.31;5070151;28;20151;-61
2022/09/03 06:46:31;;;;;;;3.17;0.80;;;;;;;17.58;43.87;99612.72;5069030;28;20044;-62
2022/09/03 06:48:58;;;;;;;6.00;0.82;;;;;;;17.65;44.02;99610.34;5068493;28;20062;-60
2022/09/03 06:51:27;;;;;;;2.17;0.80;;;;;;;17.69;44.12;99617.09;5070019;28;20053;-61
2022/09/03 06:53:59;;;;;;;2.35;0.98;;;;;;;17.75;44.21;99619.19;5068322;28;20049;-59
2022/09/03 06:56:26;;;;;;;0.95;0.57;;;;;;;17.82;43.99;99617.66;5068776;28;20096;-59
2022/09/03 06:58:55;;;;;;;2.00;0.90;;;;;;;17.88;44.08;99616.28;5069264;28;20779;-60
2022/09/03 07:01:25;;;;;;;1.58;0.98;;;;;;;17.93;44.35;99619.38;5068314;28;20531;-60
2022/09/03 07:03:56;;;;;;;1.33;0.80;;;;;;;18.00;44.19;99606.34;5068628;28;20055;-60
2022/09/03 07:06:28;;;;;;;1.40;0.88;;;;;;;18.06;44.13;99616.41;5068575;28;20065;-62
2022/09/03 07:08:56;;;;;;;6.47;0.98;;;;;;;18.14;43.90;99617.56;5050054;28;20057;-62
2022/09/03 07:11:26;;;;;;;0.82;0.80;;;;;;;18.19;44.19;99608.19;5051756;28;20122;-62
2022/09/03 07:13:54;;;;;;;4.53;0.88;;;;;;;18.25;43.97;99617.44;5053472;28;20049;-60
2022/09/03 07:16:30;;;;;;;2.42;0.90;;;;;;;18.30;44.25;99623.19;5052067;28;20063;-60
2022/09/03 07:18:56;;;;;;;3.08;1.00;;;;;;;18.39;43.90;99628.66;5072806;28;20045;-60
2022/09/03 07:21:26;;;;;;;1.27;0.80;;;;;;;18.45;43.96;99628.06;5073099;28;20627;-60
2022/09/03 07:23:54;;;;;;;0.80;0.80;;;;;;;18.51;43.81;99616.00;5071744;28;20052;-60
2022/09/03 07:26:26;;;;;;;3.17;0.70;;;;;;;18.57;43.85;99615.41;5072903;28;20080;-60
2022/09/03 07:28:54;;;;;;;1.40;0.68;;;;;;;18.64;43.91;99615.72;5071192;28;20488;-61
2022/09/03 07:31:32;;;;;;;3.45;0.80;;;;;;;18.69;43.80;99619.59;5072661;28;20055;-60
2022/09/03 07:34:05;;;;;;;0.70;0.60;;;;;;;18.75;43.80;99618.19;5071817;28;20078;-59
2022/09/03 07:36:42;;;;;;;0.82;0.80;;;;;;;18.83;44.35;99618.31;5071742;28;20729;-59
2022/09/03 07:39:10;;;;;;;2.67;0.95;;;;;;;18.93;43.86;99604.97;5051378;28;20049;-60
2022/09/03 07:41:38;;;;;;;3.35;0.90;;;;;;;19.01;43.67;99604.22;5051525;28;20057;-61
2022/09/03 07:44:07;;;;;;;2.03;0.85;;;;;;;19.08;43.96;99608.03;5058355;28;20040;-60
2022/09/03 07:46:36;;;;;;;1.42;0.85;;;;;;;19.17;43.60;99608.13;5072226;28;20053;-60
2022/09/03 07:49:05;;;;;;;1.95;0.90;;;;;;;19.25;43.52;99610.91;5072350;28;20094;-71
2022/09/03 07:51:38;;;;;;;1.60;1.08;;;;;;;19.32;43.68;99608.50;5072767;28;20075;-59
2022/09/03 07:54:08;;;;;;;2.40;1.02;;;;;;;19.42;43.28;99622.59;5070835;28;20403;-59
2022/09/03 07:56:39;;;;;;;1.27;0.88;;;;;;;19.48;43.33;99615.84;5072615;28;20052;-60
2022/09/03 07:59:07;;;;;;;1.17;0.73;;;;;;;19.59;43.04;99614.78;5070462;28;20136;-61
2022/09/03 08:01:34;;;;;;;0.90;0.68;;;;;;;19.66;42.86;99610.50;5072668;28;20136;-59
2022/09/03 08:04:05;;;;;;;3.30;0.90;;;;;;;19.72;42.96;99615.28;5070573;28;20057;-61
2022/09/03 08:06:36;;;;;;;1.88;0.80;;;;;;;19.81;42.60;99608.16;5059340;28;20052;-60
2022/09/03 08:09:10;;;;;;;1.35;0.73;;;;;;;19.89;42.74;99620.78;5070947;28;20048;-59
2022/09/03 08:11:38;;;;;;;4.50;0.93;;;;;;;19.96;42.87;99610.31;5070878;28;20056;-60
2022/09/03 08:14:11;;;;;;;1.50;0.70;;;;;;;20.02;42.88;99615.94;5070875;28;20082;-61
2022/09/03 08:16:41;;;;;;;1.08;0.88;;;;;;;20.13;42.64;99611.34;5072080;28;20068;-59
2022/09/03 08:19:10;;;;;;;1.17;0.80;;;;;;;20.22;42.47;99613.09;5070583;28;20408;-60
2022/09/03 08:21:40;;;;;;;1.50;1.00;;;;;;;20.30;42.64;99613.16;5072154;28;20063;-59
2022/09/03 08:24:09;;;;;;;0.52;0.50;;;;;;;20.39;42.33;99605.19;5069736;28;20055;-60
2022/09/03 08:26:40;;;;;;;3.00;1.15;;;;;;;20.48;42.31;99608.78;5072084;28;20071;-59
2022/09/03 08:29:08;;;;;;;1.88;0.80;;;;;;;20.57;42.33;99608.66;5071624;28;20041;-59
2022/09/03 08:31:35;;;;;;;1.13;0.73;;;;;;;20.67;42.05;99610.44;5071952;28;20044;-60
2022/09/03 08:34:05;;;;;;;1.83;0.80;;;;;;;20.77;41.89;99610.28;5070122;28;20052;-59
2022/09/03 08:36:37;;;;;;;2.80;1.23;;;;;;;20.87;42.05;99607.53;5070676;28;20395;-59
2022/09/03 08:39:08;;;;;;;2.72;0.82;;;;;;;20.97;41.71;99610.94;5070327;28;20408;-60
2022/09/03 08:41:47;;;;;;;0.85;0.80;;;;;;;21.06;41.42;99609.16;5070573;28;20135;-61
2022/09/03 08:44:47;;;;;;;0.95;0.60;;;;;;;21.13;41.41;99606.69;5071227;28;20049;-60
2022/09/03 08:47:20;;;;;;;1.17;0.77;;;;;;;21.27;41.47;99608.75;5071393;28;20040;-59
2022/09/03 08:50:08;;;;;;;2.28;0.95;;;;;;;21.35;41.07;99606.09;5071144;28;20119;-60
2022/09/03 08:52:47;;;;;;;3.40;0.80;;;;;;;21.46;40.60;99606.81;5069896;28;20046;-60
2022/09/03 08:55:28;;;;;;;1.63;0.80;;;;;;;21.55;40.82;99607.66;5071207;28;20136;-60
2022/09/03 08:58:14;;;;;;;1.65;0.70;;;;;;;21.66;40.63;99611.88;5071517;28;20071;-60
2022/09/03 09:00:41;;;;;;;0.82;0.70;;;;;;;21.80;40.75;99605.09;5070099;28;20090;-60
2022/09/03 09:03:45;;;;;;;1.27;0.90;;;;;;;21.85;40.36;99605.41;5070829;28;20047;-60
2022/09/03 09:06:31;;;;;;;5.00;0.75;;;;;;;21.98;40.05;99603.09;5071084;28;20079;-62
2022/09/03 09:09:10;;;;;;;3.33;0.80;;;;;;;22.11;39.60;99604.44;5051104;28;20057;-62
2022/09/03 09:11:58;;;;;;;6.22;1.00;;;;;;;22.20;39.51;99597.25;5051060;28;20053;-62
2022/09/03 09:14:40;;;;;;;1.08;0.80;;;;;;;22.30;39.44;99602.41;5050039;28;20052;-61
2022/09/03 09:17:40;;;;;;;1.77;0.90;;;;;;;22.39;39.25;99596.88;5069743;28;20060;-61
2022/09/03 09:20:29;;;;;;;4.40;0.90;;;;;;;22.54;39.41;99598.06;5069323;28;20047;-62
2022/09/03 09:23:04;;;;;;;0.70;0.60;;;;;;;22.64;39.05;99598.72;5070860;28;20048;-61
2022/09/03 09:25:38;;;;;;;0.82;0.70;;;;;;;22.76;39.08;99602.75;5069808;28;20137;-60
2022/09/03 09:28:31;;;;;;;2.67;0.85;;;;;;;22.84;38.89;99591.13;5069050;28;20052;-60
2022/09/03 09:31:00;;;;;;;;;;;;;;;22.99;39.29;99588.56;5064415;28;20135;-60
2022/09/03 09:33:31;;;;;;;2.85;0.88;;;;;;;23.17;38.47;99591.03;5070513;28;20364;-60
2022/09/03 09:36:02;;;;;;;0.88;0.80;;;;;;;23.28;38.30;99591.66;5069186;28;20078;-60
2022/09/03 09:38:36;;;;;;;1.98;0.75;;;;;;;23.38;38.29;99594.16;5068927;28;20052;-60
2022/09/03 09:41:22;;;;;;;1.80;0.80;;;;;;;23.47;38.05;99593.09;5069393;28;20167;-60
2022/09/03 09:44:04;;;;;;;2.40;0.85;;;;;;;23.59;37.72;99587.34;5069607;28;20059;-60
2022/09/03 09:46:41;;;;;;;0.93;0.75;;;;;;;23.69;37.64;99579.88;5069504;28;20072;-60
2022/09/03 09:49:31;;;;;;;1.40;1.00;;;;;;;23.79;38.01;99579.63;5049123;28;20073;-60
2022/09/03 09:52:06;;;;;;;0.85;0.82;;;;;;;23.91;37.39;99572.84;5050880;28;20048;-61
2022/09/03 09:54:33;;;;;;;3.22;0.90;;;;;;;24.03;37.31;99573.25;5049518;28;20052;-62
2022/09/03 09:57:03;;;;;;;1.27;0.70;;;;;;;24.13;37.40;99570.34;5052527;28;20458;-61
2022/09/03 09:59:32;;;;;;;1.23;0.75;;;;;;;24.24;37.62;99573.59;5070455;28;20058;-60
2022/09/03 10:02:12;;;;;;;2.10;0.88;;;;;;;24.32;36.95;99574.38;5069227;28;20500;-59
2022/09/03 10:04:51;;;;;;;2.40;0.90;;;;;;;24.48;37.01;99569.84;5069351;28;20094;-62
2022/09/03 10:07:31;;;;;;;1.35;0.70;;;;;;;24.59;36.47;99579.31;5068729;28;20052;-61
2022/09/03 10:10:03;;;;;;;2.70;0.90;;;;;;;24.72;36.77;99579.53;5068656;28;20456;-60
2022/09/03 10:12:58;;;;;;;2.35;0.85;;;;;;;24.86;37.05;99574.38;5068811;28;20064;-62
2022/09/03 10:15:35;;;;;;;1.10;0.80;;;;;;;25.01;36.80;99570.81;5064122;28;20135;-61
2022/09/03 10:18:40;;;;;;;1.23;0.70;;;;;;;25.11;36.23;99569.50;5069846;28;20053;-62
2022/09/03 10:21:35;;;;;;;1.58;0.90;;;;;;;25.28;36.47;99574.69;5069016;28;20130;-59
2022/09/03 10:24:21;;;;;;;0.95;0.80;;;;;;;25.41;37.14;99573.19;5069157;28;20254;-60
2022/09/03 10:26:48;;;;;;;6.32;1.30;;;;;;;25.58;36.10;99568.41;5068727;28;20052;-60
2022/09/03 10:29:21;;;;;;;18.25;1.67;;;;;;;25.68;35.45;99568.09;5068181;28;20048;-60
2022/09/03 10:32:06;;;;;;;15.50;1.63;;;;;;;25.78;35.51;99565.91;5069122;28;20052;-62
2022/09/03 10:34:33;;;;;;;5.13;0.93;;;;;;;25.93;35.23;99565.03;5070263;28;20058;-60
2022/09/03 10:37:24;;;;;;;29.73;1.88;;;;;;;25.97;35.16;99567.13;5070294;28;20141;-61
2022/09/03 10:40:27;;;;;;;2.92;0.80;;;;;;;26.06;34.80;99561.59;5049929;28;20053;-60
2022/09/03 10:43:03;;;;;;;5.55;1.02;;;;;;;26.17;35.28;99562.94;5050101;28;20049;-62
2022/09/03 10:45:56;;;;;;;32.22;2.25;;;;;;;26.25;35.01;99560.94;5050570;28;20049;-62
2022/09/03 10:48:41;;;;;;;;;;;;;;;26.38;35.94;99559.38;5062791;28;20052;-60
2022/09/03 10:51:25;;;;;;;3.08;0.73;;;;;;;26.56;35.24;99560.75;5073316;28;19924;-60
2022/09/03 10:54:19;;;;;;;13.93;1.65;;;;;;;26.66;34.80;99555.84;5053658;28;20061;-60
2022/09/03 10:57:11;;;;;;;7.03;1.15;;;;;;;26.83;34.08;99547.44;5053880;28;20053;-61
2022/09/03 11:00:05;;;;;;;12.43;1.30;;;;;;;26.99;34.94;99559.78;5071955;28;20054;-60
2022/09/03 11:02:48;;;;;;;3.00;1.10;;;;;;;27.25;34.49;99552.81;5073475;28;20067;-60
2022/09/03 11:05:28;;;;;;;21.35;2.05;;;;;;;27.57;34.40;99555.81;5072163;28;20408;-60
2022/09/03 11:08:09;;;;;;;5.30;0.90;;;;;;;27.97;33.45;99544.25;5071442;28;20408;-61
2022/09/03 11:11:03;;;;;;;2.92;0.90;;;;;;;28.49;33.60;99557.16;5053354;28;20061;-60
2022/09/03 11:13:35;;;;;;;11.77;1.13;;;;;;;29.11;32.81;99554.06;5052110;28;20049;-59
2022/09/03 11:16:19;;;;;;;14.93;1.60;;;;;;;29.77;32.07;99544.97;5053439;28;20190;-62
2022/09/03 11:18:50;;;;;;;4.30;0.75;;;;;;;30.43;31.61;99545.44;5069569;28;20397;-63
2022/09/03 11:21:21;;;;;;;2.88;0.70;;;;;;;31.04;30.67;99538.53;5073128;28;20060;-63
2022/09/03 11:23:52;;;;;;;4.70;0.88;;;;;;;31.66;30.00;99542.91;5073346;28;20059;-63
2022/09/03 11:26:25;;;;;;;1.55;0.80;;;;;;;32.25;29.28;99535.91;5073295;28;20569;-63
2022/09/03 11:29:22;;;;;;;0.63;0.55;;;;;;;32.83;29.40;99538.00;5071525;28;20048;-63
2022/09/03 11:32:10;;;;;;;5.28;0.75;;;;;;;33.41;28.61;99535.31;5052885;28;20110;-63
2022/09/03 11:34:53;;;;;;;2.17;0.70;;;;;;;33.88;28.12;99536.97;5053216;28;20049;-63
2022/09/03 11:37:22;;;;;;;3.83;0.73;;;;;;;34.26;26.61;99531.84;5053025;28;20074;-63
2022/09/03 11:40:15;;;;;;;1.95;0.80;;;;;;;34.52;27.63;99524.00;5051338;28;20607;-63
2022/09/03 11:42:43;;;;;;;2.53;0.65;;;;;;;34.89;25.81;99525.31;5053013;28;20087;-63
2022/09/03 11:45:20;;;;;;;2.08;0.70;;;;;;;35.17;25.88;99528.91;5043933;28;20793;-63
2022/09/03 11:47:48;;;;;;;1.40;0.82;;;;;;;35.50;24.75;99528.13;5052754;28;20099;-63
2022/09/03 11:50:26;;;;;;;2.38;0.68;;;;;;;35.72;24.77;99517.13;5052357;28;20044;-63
2022/09/03 11:53:13;;;;;;;1.08;0.60;;;;;;;35.93;24.98;99523.59;5068102;28;20056;-63
2022/09/03 11:55:57;;;;;;;0.65;0.63;;;;;;;36.15;24.45;99524.53;5045266;28;20481;-65
2022/09/03 11:58:28;;;;;;;1.52;0.75;;;;;;;36.40;23.49;99526.63;5051453;28;20189;-64
2022/09/03 12:00:57;;;;;;;0.80;0.63;;;;;;;36.61;24.21;99516.59;5055630;28;20417;-64
2022/09/03 12:03:28;;;;;;;0.60;0.60;;;;;;;36.86;22.75;99527.97;5070875;28;20049;-64
2022/09/03 12:06:20;;;;;;;4.93;0.70;;;;;;;37.09;23.42;99525.81;5072307;28;20139;-63
2022/09/03 12:09:07;;;;;;;0.90;0.65;;;;;;;37.31;23.51;99511.91;5072123;28;20135;-64